Time;durP1;ratioP1;P1;durP2;ratioP2;P2;SDS_P1;SDS_P2;PMS_P1;PMS_P2;Temp;Humidity;BMP_temperature;BMP_pressure;BME280_temperature;BME280_humidity;BME280_pressure;Samples;Min_cycle;Max_cycle;Signal;HPM_P1;HPM_P2
2021/08/12 00:00:24;;;;;;;8.40;3.72;;;;;;;14.93;49.57;95960.34;5008942;28;20553;-59
2021/08/12 00:02:49;;;;;;;8.18;3.53;;;;;;;14.89;49.06;95956.41;5009203;28;20029;-59
2021/08/12 00:05:15;;;;;;;5.30;3.50;;;;;;;14.94;48.72;95958.50;5008756;28;20053;-59
2021/08/12 00:07:40;;;;;;;6.43;3.80;;;;;;;14.89;48.81;95959.09;5008940;28;20099;-59
2021/08/12 00:10:06;;;;;;;5.70;3.22;;;;;;;14.83;49.50;95960.69;5003914;28;20049;-59
2021/08/12 00:12:31;;;;;;;4.72;3.50;;;;;;;14.80;49.10;95960.28;5006836;28;20073;-59
2021/08/12 00:14:57;;;;;;;4.32;3.28;;;;;;;14.78;48.98;95963.16;5003085;28;20498;-59
2021/08/12 00:17:22;;;;;;;5.13;3.50;;;;;;;14.82;49.21;95956.38;5007648;28;20039;-59
2021/08/12 00:19:48;;;;;;;7.15;3.80;;;;;;;14.77;49.76;95963.34;5009145;28;20120;-59
2021/08/12 00:22:13;;;;;;;6.22;3.42;;;;;;;14.78;48.92;95956.94;5009018;28;20798;-59
2021/08/12 00:24:39;;;;;;;5.55;3.53;;;;;;;14.76;49.16;95961.69;5005839;28;20509;-59
2021/08/12 00:27:04;;;;;;;4.40;3.20;;;;;;;14.76;49.02;95964.38;5007148;28;20045;-59
2021/08/12 00:29:30;;;;;;;6.78;3.72;;;;;;;14.68;49.56;95958.09;5008837;28;20128;-58
2021/08/12 00:31:55;;;;;;;5.05;3.30;;;;;;;14.67;49.18;95961.81;5008273;28;20133;-58
2021/08/12 00:34:21;;;;;;;5.75;3.70;;;;;;;14.67;49.28;95958.31;5008125;28;20030;-60
2021/08/12 00:36:46;;;;;;;4.63;3.30;;;;;;;14.65;48.98;95957.69;5008063;28;20041;-59
2021/08/12 00:39:12;;;;;;;5.68;3.50;;;;;;;14.63;49.24;95954.34;5007563;28;20038;-59
2021/08/12 00:41:40;;;;;;;4.55;3.30;;;;;;;14.61;48.70;95959.91;5008596;28;20486;-59
2021/08/12 00:44:06;;;;;;;4.90;3.25;;;;;;;14.59;49.03;95960.09;5008692;28;20113;-60
2021/08/12 00:46:31;;;;;;;4.85;3.22;;;;;;;14.51;49.97;95964.81;5008438;28;20033;-59
2021/08/12 00:48:57;;;;;;;7.68;3.25;;;;;;;14.50;49.39;95960.44;5008454;28;20038;-59
2021/08/12 00:51:22;;;;;;;5.13;3.58;;;;;;;14.41;49.66;95960.59;5009433;28;20471;-59
2021/08/12 00:53:48;;;;;;;5.05;3.53;;;;;;;14.38;49.70;95954.81;5012166;28;20038;-59
2021/08/12 00:56:13;;;;;;;6.50;3.63;;;;;;;14.35;49.28;95956.03;5011649;28;20042;-60
2021/08/12 00:58:39;;;;;;;4.80;3.33;;;;;;;14.30;49.56;95950.41;5012410;28;20097;-60
2021/08/12 01:01:04;;;;;;;3.60;3.03;;;;;;;14.29;49.24;95954.13;5011708;28;20046;-60
2021/08/12 01:03:30;;;;;;;4.88;3.20;;;;;;;14.22;49.73;95956.75;5012665;28;20041;-60
2021/08/12 01:05:56;;;;;;;3.88;3.25;;;;;;;14.19;49.55;95946.41;5011767;28;20042;-60
2021/08/12 01:09:01;;;;;;;3.40;2.75;;;;;;;14.12;48.43;95951.72;5011881;28;20549;-59
2021/08/12 01:11:45;;;;;;;6.38;3.50;;;;;;;14.01;50.02;95949.56;5010764;28;20022;-60
2021/08/12 01:14:14;;;;;;;3.92;3.20;;;;;;;14.00;49.41;95947.91;5011672;28;20527;-59
2021/08/12 01:16:42;;;;;;;6.63;3.10;;;;;;;13.99;49.85;95949.75;5013729;28;20045;-60
2021/08/12 01:19:29;;;;;;;3.22;2.90;;;;;;;13.91;49.00;95953.34;5010313;28;20034;-60
2021/08/12 01:21:57;;;;;;;5.78;3.40;;;;;;;13.92;50.39;95949.69;5012126;28;20751;-60
2021/08/12 01:24:24;;;;;;;4.72;3.00;;;;;;;13.99;49.36;95948.91;5009890;28;20061;-59
2021/08/12 01:26:55;;;;;;;5.23;3.20;;;;;;;13.93;50.04;95953.19;4994060;28;20040;-59
2021/08/12 01:29:34;;;;;;;4.32;2.95;;;;;;;13.93;49.23;95951.34;4994433;28;20315;-60
2021/08/12 01:32:06;;;;;;;5.32;3.00;;;;;;;13.85;49.41;95950.59;4994764;28;20029;-59
2021/08/12 01:34:58;;;;;;;4.07;3.13;;;;;;;13.78;49.93;95951.38;5010452;28;20030;-59
2021/08/12 01:37:25;;;;;;;4.47;3.00;;;;;;;13.86;50.23;95963.78;5007876;28;20069;-59
2021/08/12 01:39:50;;;;;;;5.03;2.92;;;;;;;13.86;49.78;95957.59;5006344;28;20463;-60
2021/08/12 01:42:16;;;;;;;4.55;3.10;;;;;;;13.88;50.07;95953.75;5010018;28;20029;-60
2021/08/12 01:44:41;;;;;;;6.38;3.00;;;;;;;13.86;50.40;95957.59;4993228;28;20042;-60
2021/08/12 01:47:07;;;;;;;4.82;3.10;;;;;;;13.85;49.97;95962.13;5008236;28;20030;-61
2021/08/12 01:49:32;;;;;;;4.35;3.13;;;;;;;13.85;50.28;95961.31;4993036;28;20694;-60
2021/08/12 01:51:58;;;;;;;4.90;2.95;;;;;;;13.87;50.18;95954.72;5008569;28;20690;-60
2021/08/12 01:54:23;;;;;;;5.10;3.08;;;;;;;13.87;50.90;95954.72;5009063;28;20145;-60
2021/08/12 01:56:49;;;;;;;5.18;3.10;;;;;;;13.81;50.57;95950.16;5008972;28;20034;-60
2021/08/12 01:59:14;;;;;;;4.25;3.13;;;;;;;13.83;50.35;95948.94;5009904;28;20026;-60
2021/08/12 02:01:39;;;;;;;4.05;2.88;;;;;;;13.81;50.14;95948.28;4993123;28;20041;-61
2021/08/12 02:04:05;;;;;;;3.80;3.00;;;;;;;13.75;50.29;95943.72;5008012;28;20376;-62
2021/08/12 02:06:34;;;;;;;4.72;2.90;;;;;;;13.67;50.10;95943.84;5009419;28;20026;-60
2021/08/12 02:08:59;;;;;;;3.70;2.63;;;;;;;13.65;50.21;95944.03;4993081;28;20157;-59
2021/08/12 02:11:25;;;;;;;3.70;2.75;;;;;;;13.64;50.34;95931.69;5011505;28;20045;-60
2021/08/12 02:13:50;;;;;;;4.30;2.80;;;;;;;13.57;50.44;95928.91;5010508;28;20094;-60
2021/08/12 02:16:16;;;;;;;4.03;3.00;;;;;;;13.54;50.28;95939.19;5010646;28;20379;-59
2021/08/12 02:18:41;;;;;;;5.40;2.88;;;;;;;13.52;50.28;95938.53;5011518;28;20034;-59
2021/08/12 02:21:12;;;;;;;5.88;2.75;;;;;;;13.52;49.75;95933.19;4992935;28;20046;-60
2021/08/12 02:23:40;;;;;;;6.15;3.10;;;;;;;13.54;49.41;95934.63;4992198;28;20054;-59
2021/08/12 02:26:14;;;;;;;5.20;3.05;;;;;;;13.44;49.47;95924.25;4991877;28;20041;-60
2021/08/12 02:28:41;;;;;;;4.72;3.08;;;;;;;13.37;50.51;95926.03;5010143;28;20037;-60
2021/08/12 02:31:06;;;;;;;4.15;3.28;;;;;;;13.36;51.31;95924.38;4992994;28;20022;-60
2021/08/12 02:33:36;;;;;;;5.65;3.15;;;;;;;13.34;50.96;95925.56;5008999;28;20044;-60
2021/08/12 02:36:05;;;;;;;3.88;2.90;;;;;;;13.37;50.25;95928.72;5010284;28;20112;-60
2021/08/12 02:38:31;;;;;;;4.07;3.00;;;;;;;13.40;50.87;95932.84;5010260;28;20033;-60
2021/08/12 02:40:57;;;;;;;4.20;3.10;;;;;;;13.40;50.98;95928.31;4992553;28;20100;-60
2021/08/12 02:43:22;;;;;;;6.45;3.10;;;;;;;13.38;51.12;95922.34;4993487;28;20022;-60
2021/08/12 02:45:48;;;;;;;4.97;2.90;;;;;;;13.40;50.97;95916.81;5008781;28;20041;-60
2021/08/12 02:48:13;;;;;;;4.47;3.20;;;;;;;13.41;50.99;95913.13;5008468;28;20053;-61
2021/08/12 02:50:39;;;;;;;3.72;2.95;;;;;;;13.38;51.12;95910.81;5007136;28;20038;-60
2021/08/12 02:53:05;;;;;;;5.65;2.90;;;;;;;13.40;50.48;95922.97;5008199;28;20041;-60
2021/08/12 02:55:31;;;;;;;3.97;2.92;;;;;;;13.34;50.89;95918.41;5008641;28;20505;-60
2021/08/12 02:57:57;;;;;;;4.95;2.85;;;;;;;13.31;51.08;95911.59;5008220;28;20050;-59
2021/08/12 03:00:22;;;;;;;3.00;2.70;;;;;;;13.31;50.49;95919.59;4991133;28;20039;-60
2021/08/12 03:02:48;;;;;;;4.60;3.00;;;;;;;13.31;50.72;95906.22;5008575;28;20085;-60
2021/08/12 03:05:14;;;;;;;3.97;2.50;;;;;;;13.33;50.09;95911.41;4990974;28;20049;-60
2021/08/12 03:07:42;;;;;;;5.05;2.78;;;;;;;13.34;50.38;95914.88;5008909;28;20109;-60
2021/08/12 03:10:08;;;;;;;3.80;2.40;;;;;;;13.32;49.88;95912.38;5008528;28;20054;-60
2021/08/12 03:12:33;;;;;;;4.05;2.80;;;;;;;13.28;50.89;95911.13;4989954;28;20125;-59
2021/08/12 03:14:59;;;;;;;5.90;2.30;;;;;;;13.33;50.27;95915.91;4991952;28;20026;-59
2021/08/12 03:17:24;;;;;;;3.38;2.28;;;;;;;13.33;49.20;95916.75;5009967;28;20049;-59
2021/08/12 03:19:49;;;;;;;3.35;2.53;;;;;;;13.34;50.40;95918.41;4991008;28;20045;-59
2021/08/12 03:22:16;;;;;;;3.65;2.60;;;;;;;13.35;49.96;95914.69;5006813;28;20041;-59
2021/08/12 03:24:43;;;;;;;3.45;2.47;;;;;;;13.36;50.24;95911.00;5011915;28;20038;-58
2021/08/12 03:27:11;;;;;;;3.47;2.60;;;;;;;13.37;50.26;95912.69;5006628;28;20045;-58
2021/08/12 03:29:37;;;;;;;4.50;2.97;;;;;;;13.41;49.81;95921.97;5009534;28;20152;-59
2021/08/12 03:32:03;;;;;;;4.00;2.70;;;;;;;13.42;50.41;95923.63;5002073;28;20061;-60
2021/08/12 03:34:28;;;;;;;6.85;3.10;;;;;;;13.43;50.88;95921.78;5008744;28;20073;-59
2021/08/12 03:36:54;;;;;;;6.88;3.10;;;;;;;13.48;50.86;95926.56;5009331;28;20053;-60
2021/08/12 03:39:21;;;;;;;3.97;2.90;;;;;;;13.47;50.59;95927.56;5009648;28;20487;-60
2021/08/12 03:41:46;;;;;;;5.30;3.20;;;;;;;13.49;50.58;95920.22;5008996;28;20049;-61
2021/08/12 03:44:12;;;;;;;5.65;3.00;;;;;;;13.52;50.19;95917.13;5008929;28;20427;-61
2021/08/12 03:46:37;;;;;;;3.10;2.58;;;;;;;13.52;50.17;95922.47;5009129;28;20476;-59
2021/08/12 03:49:03;;;;;;;4.50;2.75;;;;;;;13.48;49.97;95918.53;5008611;28;20034;-60
2021/08/12 03:51:29;;;;;;;4.75;2.80;;;;;;;13.49;49.81;95915.66;5009232;28;20034;-60
2021/08/12 03:53:55;;;;;;;3.85;2.80;;;;;;;13.43;49.87;95917.25;5008976;28;20049;-62
2021/08/12 03:56:21;;;;;;;3.90;2.88;;;;;;;13.42;49.91;95923.63;5008475;28;20497;-62
2021/08/12 03:58:46;;;;;;;3.95;3.03;;;;;;;13.42;50.22;95920.94;5009294;28;20044;-59
2021/08/12 04:01:11;;;;;;;4.18;2.67;;;;;;;13.43;50.31;95921.78;5008724;28;20049;-59
2021/08/12 04:03:37;;;;;;;4.00;2.60;;;;;;;13.43;49.66;95919.13;5014176;28;20417;-60
2021/08/12 04:06:02;;;;;;;5.57;2.83;;;;;;;13.41;49.95;95918.47;5008618;28;20499;-60
2021/08/12 04:08:28;;;;;;;3.25;2.50;;;;;;;13.41;50.07;95916.63;5008934;28;20104;-60
2021/08/12 04:10:55;;;;;;;3.78;2.65;;;;;;;13.46;49.72;95918.72;5009651;28;20049;-59
2021/08/12 04:13:20;;;;;;;3.83;2.65;;;;;;;13.48;49.85;95926.56;5008189;28;20053;-58
2021/08/12 04:15:45;;;;;;;3.63;2.50;;;;;;;13.52;49.26;95925.16;5009907;28;20049;-58
2021/08/12 04:18:11;;;;;;;4.68;2.53;;;;;;;13.54;49.25;95928.47;5009155;28;20048;-58
2021/08/12 04:20:36;;;;;;;4.18;2.58;;;;;;;13.54;49.26;95931.16;5008836;28;20049;-58
2021/08/12 04:23:02;;;;;;;4.35;2.60;;;;;;;13.56;49.67;95931.78;5009146;28;20029;-58
2021/08/12 04:25:27;;;;;;;4.97;2.40;;;;;;;13.62;49.12;95931.03;5007727;28;20041;-59
2021/08/12 04:27:52;;;;;;;4.18;3.00;;;;;;;13.51;48.71;95927.00;5008558;28;20029;-59
2021/08/12 04:30:18;;;;;;;5.60;3.05;;;;;;;13.28;51.33;95929.81;5008710;28;20042;-60
2021/08/12 04:32:43;;;;;;;4.50;2.95;;;;;;;13.48;50.66;95932.75;5008481;28;20418;-60
2021/08/12 04:35:09;;;;;;;3.10;2.80;;;;;;;13.63;50.22;95929.19;5008140;28;20052;-61
2021/08/12 04:37:42;;;;;;;5.13;2.72;;;;;;;13.76;49.65;95926.63;5008197;28;20505;-61
2021/08/12 04:40:09;;;;;;;3.25;2.60;;;;;;;13.89;49.46;95939.34;5008099;28;20053;-59
2021/08/12 04:42:34;;;;;;;4.38;2.58;;;;;;;13.98;49.49;95929.34;5008846;28;20038;-60
2021/08/12 04:44:59;;;;;;;3.40;2.40;;;;;;;14.07;48.83;95936.22;5000894;28;20173;-59
2021/08/12 04:47:25;;;;;;;4.00;2.70;;;;;;;14.15;48.55;95937.94;4991631;28;20086;-61
2021/08/12 04:49:50;;;;;;;4.50;2.47;;;;;;;14.19;48.60;95933.03;5001089;28;20106;-61
2021/08/12 04:52:16;;;;;;;3.53;2.60;;;;;;;14.28;48.56;95944.44;5004392;28;20105;-62
2021/08/12 04:54:41;;;;;;;3.33;2.72;;;;;;;14.34;48.51;95933.75;5007829;28;20052;-61
2021/08/12 04:57:07;;;;;;;2.85;2.53;;;;;;;14.40;48.32;95936.69;4997332;28;20106;-60
2021/08/12 04:59:32;;;;;;;3.55;2.63;;;;;;;14.46;48.01;95946.63;5001665;28;20066;-60
2021/08/12 05:01:58;;;;;;;4.38;2.60;;;;;;;14.53;48.01;95938.63;5004054;28;20504;-60
2021/08/12 05:04:23;;;;;;;3.60;2.88;;;;;;;14.52;48.13;95936.97;4998769;28;20049;-60
2021/08/12 05:06:48;;;;;;;3.85;2.72;;;;;;;14.58;48.36;95938.88;5004671;28;20037;-60
2021/08/12 05:09:14;;;;;;;3.95;2.80;;;;;;;14.58;48.29;95939.69;5000853;28;20874;-61
2021/08/12 05:11:40;;;;;;;3.58;2.90;;;;;;;14.62;48.37;95950.84;5001823;28;20419;-61
2021/08/12 05:14:06;;;;;;;4.53;3.00;;;;;;;14.64;48.30;95946.13;4998221;28;20041;-61
2021/08/12 05:16:31;;;;;;;5.78;3.25;;;;;;;14.67;48.38;95950.25;4997713;28;20104;-61
2021/08/12 05:18:56;;;;;;;3.60;3.17;;;;;;;14.77;48.24;95947.25;5004437;28;20423;-61
2021/08/12 05:21:22;;;;;;;5.63;3.17;;;;;;;14.87;48.14;95947.75;5004339;28;20650;-61
2021/08/12 05:23:47;;;;;;;5.18;3.60;;;;;;;15.01;47.64;95942.44;5002359;28;20077;-62
2021/08/12 05:26:13;;;;;;;6.25;3.20;;;;;;;15.18;47.64;95945.63;5004574;28;20094;-62
2021/08/12 05:28:38;;;;;;;4.80;2.92;;;;;;;15.29;47.33;95949.59;5001684;28;20102;-62
2021/08/12 05:31:04;;;;;;;5.22;3.20;;;;;;;15.40;47.16;95954.38;5001467;28;20074;-60
2021/08/12 05:33:29;;;;;;;4.78;2.95;;;;;;;15.48;47.27;95953.38;5001973;28;20103;-59
2021/08/12 05:35:55;;;;;;;4.55;3.20;;;;;;;15.58;47.08;95945.81;5001078;28;20051;-59
2021/08/12 05:38:20;;;;;;;3.50;3.20;;;;;;;15.70;46.84;95951.41;5002640;28;20045;-59
2021/08/12 05:40:45;;;;;;;6.40;3.08;;;;;;;15.91;46.78;95946.91;5005556;28;20491;-59
2021/08/12 05:43:11;;;;;;;3.70;2.83;;;;;;;16.08;46.95;95952.72;5008784;28;20029;-65
2021/08/12 05:45:36;;;;;;;3.30;2.70;;;;;;;16.20;46.71;95960.16;5006558;28;20041;-59
2021/08/12 05:48:02;;;;;;;4.72;3.15;;;;;;;16.32;46.53;95953.13;5006542;28;20061;-59
2021/08/12 05:50:27;;;;;;;5.25;3.45;;;;;;;16.48;46.54;95959.16;5007339;28;20040;-59
2021/08/12 05:52:53;;;;;;;6.22;3.15;;;;;;;16.62;46.22;95958.13;5006072;28;20052;-59
2021/08/12 05:55:18;;;;;;;6.82;3.25;;;;;;;16.75;45.82;95959.13;5013390;28;20036;-59
2021/08/12 05:57:43;;;;;;;4.40;3.00;;;;;;;16.93;46.05;95957.66;5005449;28;20041;-59
2021/08/12 06:00:10;;;;;;;4.38;3.15;;;;;;;17.05;45.85;95952.44;5006129;28;20049;-59
2021/08/12 06:02:35;;;;;;;9.73;3.25;;;;;;;17.21;45.72;95959.25;5000970;28;20049;-59
2021/08/12 06:05:00;;;;;;;5.03;3.30;;;;;;;17.41;45.48;95951.13;5004574;28;20034;-59
2021/08/12 06:07:26;;;;;;;3.88;3.05;;;;;;;17.58;45.31;95947.94;5005242;28;20038;-59
2021/08/12 06:09:52;;;;;;;4.60;2.97;;;;;;;17.77;45.12;95947.00;5005177;28;20236;-60
2021/08/12 06:12:18;;;;;;;5.60;3.20;;;;;;;17.91;45.29;95952.31;5004463;28;20057;-59
2021/08/12 06:14:43;;;;;;;5.80;3.35;;;;;;;18.05;44.90;95945.81;5004653;28;20038;-59
2021/08/12 06:17:08;;;;;;;4.07;2.90;;;;;;;18.17;46.00;95955.88;5004367;28;20045;-59
2021/08/12 06:19:34;;;;;;;4.93;3.10;;;;;;;18.26;45.13;95957.25;5005616;28;20479;-59
2021/08/12 06:21:59;;;;;;;4.90;3.13;;;;;;;18.36;44.70;95955.94;5004637;28;20042;-60
2021/08/12 06:24:25;;;;;;;5.78;3.50;;;;;;;18.42;44.92;95968.53;5004388;28;20034;-59
2021/08/12 06:26:50;;;;;;;4.10;3.03;;;;;;;18.51;44.78;95961.00;5003028;28;20030;-59
2021/08/12 06:29:16;;;;;;;8.27;3.10;;;;;;;18.66;44.40;95964.22;5004466;28;20046;-60
2021/08/12 06:31:41;;;;;;;4.68;2.95;;;;;;;18.88;44.43;95954.88;5005050;28;20034;-60
2021/08/12 06:34:06;;;;;;;5.65;3.30;;;;;;;19.15;43.51;95958.13;5001864;28;20041;-59
2021/08/12 06:36:32;;;;;;;5.85;3.30;;;;;;;19.49;41.72;95955.06;5001781;28;20468;-59
2021/08/12 06:38:59;;;;;;;5.13;3.28;;;;;;;19.42;40.24;95948.91;5003386;28;20030;-59
2021/08/12 06:41:26;;;;;;;5.07;3.20;;;;;;;19.31;40.34;95945.91;5004367;28;20116;-60
2021/08/12 06:43:51;;;;;;;6.38;3.25;;;;;;;19.41;40.14;95953.47;5003836;28;20029;-60
2021/08/12 06:46:17;;;;;;;5.75;3.33;;;;;;;19.13;40.37;95951.28;5003932;28;20034;-60
2021/08/12 06:48:42;;;;;;;5.07;3.40;;;;;;;18.77;40.99;95953.75;5003044;28;20034;-60
2021/08/12 06:51:08;;;;;;;4.70;3.05;;;;;;;19.23;40.81;95954.28;5005339;28;20034;-60
2021/08/12 06:53:34;;;;;;;4.57;3.33;;;;;;;20.06;38.02;95953.88;5002359;28;20064;-60
2021/08/12 06:55:59;;;;;;;6.60;3.10;;;;;;;20.51;37.68;95951.72;5003111;28;20091;-60
2021/08/12 06:58:24;;;;;;;4.20;3.08;;;;;;;20.57;37.70;95955.38;5004135;28;20774;-60
2021/08/12 07:00:50;;;;;;;3.67;2.90;;;;;;;20.74;37.52;95958.25;5004996;28;20555;-60
2021/08/12 07:03:15;;;;;;;4.25;2.97;;;;;;;20.84;36.87;95963.88;5005432;28;20593;-60
2021/08/12 07:05:41;;;;;;;5.97;3.05;;;;;;;20.99;36.74;95960.69;5004139;28;20292;-60
2021/08/12 07:08:08;;;;;;;5.53;3.10;;;;;;;21.04;36.36;95961.88;5001942;28;21788;-60
2021/08/12 07:10:34;;;;;;;5.68;2.90;;;;;;;21.17;36.24;95960.78;5004102;28;20076;-60
2021/08/12 07:12:59;;;;;;;5.15;2.85;;;;;;;21.09;36.04;95961.97;5003546;28;20038;-60
2021/08/12 07:15:25;;;;;;;5.47;3.10;;;;;;;20.94;36.85;95965.16;5004445;28;20034;-60
2021/08/12 07:17:50;;;;;;;4.32;3.10;;;;;;;21.27;36.18;95963.72;5002501;28;20483;-60
2021/08/12 07:20:16;;;;;;;4.80;3.17;;;;;;;20.64;37.43;95975.06;5003816;28;20375;-59
2021/08/12 07:22:41;;;;;;;4.07;3.05;;;;;;;20.34;38.52;95975.91;5004519;28;20072;-60
2021/08/12 07:25:07;;;;;;;5.10;3.00;;;;;;;20.73;36.92;95970.09;5002981;28;20424;-60
2021/08/12 07:27:32;;;;;;;5.22;3.10;;;;;;;20.74;36.66;95974.47;5002118;28;20061;-60
2021/08/12 07:29:58;;;;;;;3.47;2.80;;;;;;;21.38;35.64;95973.72;4997383;28;20038;-60
2021/08/12 07:32:23;;;;;;;6.50;3.17;;;;;;;21.59;35.85;95976.81;5003314;28;20044;-59
2021/08/12 07:34:49;;;;;;;5.93;2.92;;;;;;;21.74;36.28;95975.47;5004762;28;20262;-60
2021/08/12 07:37:14;;;;;;;5.70;3.22;;;;;;;21.44;36.25;95973.81;5002730;28;20049;-60
2021/08/12 07:39:39;;;;;;;5.32;3.30;;;;;;;19.11;40.57;95977.69;5004023;28;20062;-59
2021/08/12 07:42:05;;;;;;;3.20;2.70;;;;;;;20.79;37.91;95981.84;4997448;28;20565;-60
2021/08/12 07:44:30;;;;;;;4.15;2.95;;;;;;;21.70;35.67;95979.75;5003751;28;20082;-59
2021/08/12 07:46:56;;;;;;;4.57;3.00;;;;;;;21.53;36.14;95974.25;4998362;28;20030;-60
2021/08/12 07:49:21;;;;;;;3.63;2.78;;;;;;;22.06;34.87;95969.59;5003767;28;20061;-59
2021/08/12 07:51:47;;;;;;;6.82;2.88;;;;;;;22.28;34.22;95974.31;4999133;28;20029;-60
2021/08/12 07:54:13;;;;;;;5.72;3.13;;;;;;;22.01;34.36;95970.34;5002465;28;20034;-60
2021/08/12 07:56:39;;;;;;;6.93;2.92;;;;;;;21.83;35.60;95971.34;5000990;28;20259;-60
2021/08/12 07:59:04;;;;;;;3.70;2.75;;;;;;;21.86;34.95;95980.88;5003184;28;20101;-60
2021/08/12 08:01:29;;;;;;;5.78;3.75;;;;;;;21.95;34.69;95967.75;5002872;28;20773;-60
2021/08/12 08:03:56;;;;;;;6.43;3.10;;;;;;;20.72;36.81;95968.44;5003559;28;20033;-60
2021/08/12 08:06:21;;;;;;;5.18;3.10;;;;;;;21.33;36.04;95968.19;5003266;28;20322;-60
2021/08/12 08:08:47;;;;;;;5.65;2.80;;;;;;;22.17;33.90;95967.06;5001434;28;20045;-60
2021/08/12 08:11:15;;;;;;;2.83;2.50;;;;;;;21.43;35.70;95974.88;5003442;28;20026;-60
2021/08/12 08:13:41;;;;;;;3.25;2.80;;;;;;;22.13;34.19;95961.31;5002506;28;20037;-60
2021/08/12 08:16:06;;;;;;;4.90;3.00;;;;;;;22.87;32.70;95964.13;5002438;28;20033;-61
2021/08/12 08:18:32;;;;;;;3.40;2.78;;;;;;;23.12;32.85;95958.22;5001625;28;20702;-60
2021/08/12 08:20:57;;;;;;;3.92;3.00;;;;;;;22.28;33.27;95966.19;5001674;28;20073;-60
2021/08/12 08:23:23;;;;;;;3.47;2.75;;;;;;;22.50;33.80;95965.47;5002572;28;20036;-59
2021/08/12 08:25:48;;;;;;;4.22;2.90;;;;;;;22.34;33.79;95970.63;5003205;28;20416;-60
2021/08/12 08:28:14;;;;;;;55.55;6.43;;;;;;;22.59;33.77;95972.13;5002403;28;20042;-59
2021/08/12 08:30:39;;;;;;;11.10;4.28;;;;;;;22.84;33.97;95970.88;5001484;28;21113;-60
2021/08/12 08:33:05;;;;;;;6.68;2.67;;;;;;;23.58;32.88;95976.22;5003027;28;20034;-60
2021/08/12 08:35:30;;;;;;;3.42;2.90;;;;;;;23.88;32.44;95974.13;5002600;28;20033;-61
2021/08/12 08:37:59;;;;;;;3.97;2.88;;;;;;;21.84;34.36;95981.09;5002056;28;20474;-60
2021/08/12 08:40:25;;;;;;;3.15;2.78;;;;;;;22.63;33.76;95983.31;5001591;28;20041;-60
2021/08/12 08:42:50;;;;;;;5.43;3.00;;;;;;;23.35;33.58;95985.44;5003161;28;20041;-60
2021/08/12 08:45:22;;;;;;;4.20;2.90;;;;;;;23.59;33.09;95977.84;5001141;28;20033;-60
2021/08/12 08:47:47;;;;;;;3.40;2.90;;;;;;;23.03;33.53;95974.13;4998745;28;20117;-59
2021/08/12 08:50:16;;;;;;;12.57;5.40;;;;;;;23.42;33.75;95975.22;5000819;28;20034;-60
2021/08/12 08:52:42;;;;;;;15.75;9.07;;;;;;;23.43;32.97;95972.22;5001288;28;20042;-62
2021/08/12 08:55:08;;;;;;;5.57;3.10;;;;;;;23.09;33.40;95975.03;5001497;28;20104;-60
2021/08/12 08:57:33;;;;;;;6.20;3.30;;;;;;;22.11;34.73;95971.56;4995450;28;20486;-60
2021/08/12 08:59:59;;;;;;;5.88;3.22;;;;;;;22.52;33.03;95979.59;5001371;28;20025;-60
2021/08/12 09:02:24;;;;;;;5.63;3.38;;;;;;;20.90;36.66;95988.34;4996172;28;20038;-60
2021/08/12 09:04:49;;;;;;;4.25;3.00;;;;;;;22.70;34.17;95980.44;5000092;28;20442;-60
2021/08/12 09:07:15;;;;;;;4.28;3.35;;;;;;;23.52;32.69;95988.91;5001369;28;20029;-61
2021/08/12 09:09:41;;;;;;;4.87;3.50;;;;;;;24.22;33.92;95981.25;4983792;28;20065;-61
2021/08/12 09:12:07;;;;;;;4.88;3.10;;;;;;;21.64;36.07;95995.06;5001294;28;20284;-61
2021/08/12 09:14:34;;;;;;;4.80;3.00;;;;;;;23.83;32.24;95983.06;5005298;28;20033;-60
2021/08/12 09:17:19;;;;;;;6.38;3.67;;;;;;;22.70;33.88;95991.28;5005421;28;20113;-60
2021/08/12 09:20:06;;;;;;;4.45;3.05;;;;;;;22.98;33.44;95993.06;5003634;28;20415;-60
2021/08/12 09:22:50;;;;;;;5.38;3.10;;;;;;;22.42;36.05;95988.38;4999307;28;20046;-60
2021/08/12 09:25:44;;;;;;;6.20;3.90;;;;;;;23.21;33.62;95985.00;5002058;28;20495;-60
2021/08/12 09:28:15;;;;;;;4.30;3.13;;;;;;;23.28;32.73;95991.88;5000102;28;20050;-60
2021/08/12 09:30:41;;;;;;;7.07;3.17;;;;;;;23.96;31.27;95986.44;4998773;28;20124;-60
2021/08/12 09:33:07;;;;;;;4.10;3.10;;;;;;;23.39;32.33;95981.94;5003710;28;20085;-61
2021/08/12 09:35:33;;;;;;;5.90;3.25;;;;;;;24.21;31.59;95985.88;5003567;28;20045;-60
2021/08/12 09:38:09;;;;;;;7.27;3.30;;;;;;;22.61;34.47;95971.88;5004768;28;20049;-60
2021/08/12 09:40:34;;;;;;;4.73;3.10;;;;;;;23.86;32.17;95982.53;4998706;28;20038;-60
2021/08/12 09:43:01;;;;;;;5.23;3.03;;;;;;;24.15;32.23;95990.44;5003130;28;20033;-60
2021/08/12 09:45:28;;;;;;;4.30;3.00;;;;;;;22.79;33.72;95987.91;4999979;28;20390;-60
2021/08/12 09:47:53;;;;;;;4.70;3.00;;;;;;;25.30;30.04;95986.72;5004871;28;20399;-60
2021/08/12 09:50:26;;;;;;;5.40;2.80;;;;;;;25.15;30.29;95994.81;5005938;28;20029;-60
2021/08/12 09:52:51;;;;;;;5.53;3.08;;;;;;;23.92;31.85;95995.09;5002535;28;20128;-59
2021/08/12 09:55:19;;;;;;;6.07;3.20;;;;;;;24.75;31.12;95989.63;5003899;28;20491;-60
2021/08/12 09:57:46;;;;;;;4.35;3.10;;;;;;;24.28;31.96;95988.38;5004440;28;20041;-60
2021/08/12 10:00:27;;;;;;;10.57;3.10;;;;;;;25.40;31.12;95990.56;5004985;28;20153;-60
2021/08/12 10:02:53;;;;;;;7.55;3.00;;;;;;;25.86;29.46;95985.31;5003628;28;20067;-60
2021/08/12 10:05:18;;;;;;;3.80;2.90;;;;;;;25.87;27.55;95988.88;5005099;28;20042;-60
2021/08/12 10:07:45;;;;;;;2.73;2.50;;;;;;;25.14;28.73;95991.25;5005214;28;20056;-60
2021/08/12 10:10:23;;;;;;;3.63;2.90;;;;;;;24.69;29.32;95991.47;5004328;28;20620;-60
2021/08/12 10:12:53;;;;;;;4.07;2.88;;;;;;;23.72;31.10;95990.22;5000300;28;20381;-60
2021/08/12 10:15:21;;;;;;;10.02;5.03;;;;;;;24.63;30.11;95987.06;5003338;28;20083;-61
2021/08/12 10:17:47;;;;;;;4.43;2.72;;;;;;;24.50;28.67;95990.25;5004558;28;20498;-60
2021/08/12 10:20:17;;;;;;;17.20;11.20;;;;;;;24.97;29.32;95988.69;5004551;28;20118;-60
2021/08/12 10:22:42;;;;;;;3.75;2.92;;;;;;;23.97;31.22;95997.06;5003409;28;20485;-61
2021/08/12 10:25:09;;;;;;;4.37;3.13;;;;;;;24.48;28.64;95995.09;5001100;28;20038;-61
2021/08/12 10:27:34;;;;;;;7.07;3.00;;;;;;;23.65;29.53;95989.59;5003016;28;20510;-61
2021/08/12 10:30:00;;;;;;;10.70;6.30;;;;;;;23.97;30.85;95986.19;4985662;28;20289;-62
2021/08/12 10:32:26;;;;;;;3.90;2.80;;;;;;;25.11;29.38;95990.97;5003086;28;20042;-61
2021/08/12 10:34:51;;;;;;;3.42;2.72;;;;;;;26.09;27.17;95988.66;5002579;28;20044;-60
2021/08/12 10:37:17;;;;;;;4.87;3.00;;;;;;;26.38;26.64;95990.06;5000813;28;20053;-61
2021/08/12 10:39:42;;;;;;;11.27;3.17;;;;;;;26.32;26.58;95994.69;5003953;28;20307;-61
2021/08/12 10:42:08;;;;;;;5.03;3.43;;;;;;;26.39;27.40;95985.41;5002247;28;20467;-61
2021/08/12 10:44:34;;;;;;;4.43;2.90;;;;;;;26.53;27.77;95985.69;5001013;28;20258;-61
2021/08/12 10:46:59;;;;;;;5.30;3.00;;;;;;;26.43;28.33;95981.03;5002251;28;20061;-60
2021/08/12 10:49:28;;;;;;;3.83;2.90;;;;;;;26.01;26.71;95985.59;4981197;28;20035;-60
2021/08/12 10:52:03;;;;;;;4.03;2.67;;;;;;;25.15;27.34;95990.16;4990205;28;20106;-60
2021/08/12 10:54:30;;;;;;;4.32;2.83;;;;;;;24.86;28.31;95989.66;5001679;28;20487;-58
2021/08/12 10:57:18;;;;;;;4.30;2.90;;;;;;;24.74;28.91;95992.59;4994248;28;20037;-59
2021/08/12 10:59:44;;;;;;;4.03;2.70;;;;;;;24.53;29.36;95986.97;5004409;28;20647;-61
2021/08/12 11:02:28;;;;;;;8.73;2.88;;;;;;;24.87;28.46;95989.41;4998054;28;20038;-59
2021/08/12 11:04:54;;;;;;;5.68;3.10;;;;;;;24.78;28.35;95988.28;4994735;28;20065;-60
2021/08/12 11:07:38;;;;;;;7.00;3.08;;;;;;;24.96;27.65;95987.06;4999100;28;20076;-59
2021/08/12 11:10:05;;;;;;;6.05;3.00;;;;;;;25.09;27.05;95993.94;4996467;28;20088;-59
2021/08/12 11:12:52;;;;;;;6.28;3.90;;;;;;;24.10;29.50;95993.09;5002378;28;20510;-59
2021/08/12 11:15:37;;;;;;;4.32;3.28;;;;;;;24.29;29.61;95990.84;5000204;28;20187;-59
2021/08/12 11:18:02;;;;;;;3.72;3.03;;;;;;;23.22;31.90;95997.50;4993973;28;20420;-59
2021/08/12 11:20:37;;;;;;;5.70;2.90;;;;;;;23.81;30.24;95994.19;4998350;28;20045;-59
2021/08/12 11:23:17;;;;;;;6.00;2.92;;;;;;;24.51;28.30;95975.56;4999012;28;20137;-59
2021/08/12 11:25:57;;;;;;;3.28;2.75;;;;;;;25.29;27.63;95976.06;4987317;28;20046;-59
2021/08/12 11:28:38;;;;;;;8.15;2.88;;;;;;;24.27;30.55;95978.59;4996819;28;20323;-60
2021/08/12 11:31:04;;;;;;;4.40;2.80;;;;;;;23.85;30.39;95980.06;4993125;28;20029;-60
2021/08/12 11:33:30;;;;;;;5.63;2.95;;;;;;;24.12;29.34;95977.34;5000494;28;20442;-59